createdAt,value
2023-01-23T00:01:33.622Z,8.23
2023-01-23T00:04:00.791Z,9.27
2023-01-23T00:06:28.239Z,9.35
2023-01-23T00:08:58.460Z,9.98
2023-01-23T00:11:30.212Z,10.38
2023-01-23T00:13:57.607Z,10.38
2023-01-23T00:16:26.039Z,10.02
2023-01-23T00:18:52.577Z,9.45
2023-01-23T00:21:23.984Z,9.82
2023-01-23T00:23:55.872Z,9.75
2023-01-23T00:26:28.330Z,11.13
2023-01-23T00:28:55.518Z,10.65
2023-01-23T00:31:25.282Z,11.02
2023-01-23T00:33:57.786Z,9.75
2023-01-23T00:36:27.967Z,10.50
2023-01-23T00:38:55.271Z,11.30
2023-01-23T00:41:21.863Z,11.63
2023-01-23T00:43:48.870Z,10.68
2023-01-23T00:46:20.070Z,10.13
2023-01-23T00:48:46.624Z,11.30
2023-01-23T00:51:13.532Z,10.45
2023-01-23T00:53:40.030Z,11.57
2023-01-23T00:56:07.127Z,14.38
2023-01-23T00:58:33.663Z,11.88
2023-01-23T01:01:00.243Z,13.75
2023-01-23T01:03:27.063Z,11.02
2023-01-23T01:05:53.826Z,13.07
2023-01-23T01:08:20.686Z,11.57
2023-01-23T01:10:47.210Z,12.27
2023-01-23T01:13:14.433Z,12.30
2023-01-23T01:15:40.989Z,11.05
2023-01-23T01:18:08.995Z,11.63
2023-01-23T01:20:35.532Z,11.13
2023-01-23T01:23:02.481Z,12.55
2023-01-23T01:25:30.424Z,11.73
2023-01-23T01:27:56.943Z,14.65
2023-01-23T01:30:25.360Z,11.88
2023-01-23T01:32:51.857Z,13.20
2023-01-23T01:35:18.583Z,12.55
2023-01-23T01:37:45.096Z,12.75
2023-01-23T01:40:19.058Z,12.82
2023-01-23T01:42:52.042Z,12.82
2023-01-23T01:45:56.183Z,12.20
2023-01-23T01:48:26.584Z,13.07
2023-01-23T01:50:53.899Z,12.05
2023-01-23T01:53:23.136Z,12.93
2023-01-23T01:55:50.690Z,12.75
2023-01-23T01:58:18.286Z,12.38
2023-01-23T02:00:45.001Z,11.50
2023-01-23T02:03:12.143Z,12.68
2023-01-23T02:05:48.455Z,11.75
2023-01-23T02:08:28.397Z,12.52
2023-01-23T02:10:55.064Z,12.95
2023-01-23T02:13:28.478Z,11.68
2023-01-23T02:15:55.420Z,10.77
2023-01-23T02:18:22.397Z,11.43
2023-01-23T02:20:51.726Z,12.57
2023-01-23T02:23:35.658Z,10.93
2023-01-23T02:26:06.942Z,11.93
2023-01-23T02:28:48.341Z,14.25
2023-01-23T02:31:19.982Z,12.18
2023-01-23T02:33:50.805Z,13.70
2023-01-23T02:36:19.182Z,13.50
2023-01-23T02:38:54.185Z,12.65
2023-01-23T02:41:28.505Z,14.13
2023-01-23T02:43:58.909Z,13.23
2023-01-23T02:46:25.572Z,12.63
2023-01-23T02:48:52.328Z,12.60
2023-01-23T02:51:20.877Z,11.80
2023-01-23T02:53:48.649Z,13.50
2023-01-23T02:56:15.959Z,13.15
2023-01-23T02:59:02.310Z,12.43
2023-01-23T03:01:28.932Z,12.43
2023-01-23T03:04:03.556Z,12.82
2023-01-23T03:06:36.202Z,12.85
2023-01-23T03:09:10.000Z,13.20
2023-01-23T03:11:38.992Z,12.32
2023-01-23T03:14:15.963Z,12.90
2023-01-23T03:16:42.947Z,13.50
2023-01-23T03:19:10.576Z,12.55
2023-01-23T03:21:40.444Z,12.48
2023-01-23T03:24:09.837Z,12.55
2023-01-23T03:26:42.325Z,14.88
2023-01-23T03:29:34.629Z,13.52
2023-01-23T03:32:01.567Z,14.32
2023-01-23T03:34:29.485Z,13.73
2023-01-23T03:36:56.366Z,10.73
2023-01-23T03:39:43.151Z,13.82
2023-01-23T03:42:09.708Z,14.63
2023-01-23T03:44:37.018Z,13.43
2023-01-23T03:47:04.185Z,13.55
2023-01-23T03:49:31.416Z,13.95
2023-01-23T03:51:59.048Z,11.55
2023-01-23T03:54:26.082Z,13.57
2023-01-23T03:56:54.129Z,13.93
2023-01-23T03:59:50.029Z,14.88
2023-01-23T04:02:19.656Z,12.75
2023-01-23T04:04:46.234Z,11.88
2023-01-23T04:07:14.261Z,14.48
2023-01-23T04:09:42.644Z,13.70
2023-01-23T04:12:09.298Z,20.88
2023-01-23T04:14:39.953Z,14.50
2023-01-23T04:17:08.442Z,13.27
2023-01-23T04:19:35.355Z,11.18
2023-01-23T04:22:02.772Z,12.80
2023-01-23T04:24:34.557Z,12.80
2023-01-23T04:27:01.028Z,13.32
2023-01-23T04:29:28.382Z,12.60
2023-01-23T04:31:54.869Z,14.82
2023-01-23T04:34:21.925Z,12.82
2023-01-23T04:36:50.437Z,12.30
2023-01-23T04:39:17.518Z,13.07
2023-01-23T04:41:46.847Z,14.70
2023-01-23T04:44:26.910Z,15.50
2023-01-23T04:47:13.355Z,12.63
2023-01-23T04:49:39.935Z,13.65
2023-01-23T04:52:06.735Z,14.52
2023-01-23T04:54:37.472Z,12.77
2023-01-23T04:57:04.356Z,13.45
2023-01-23T04:59:32.000Z,14.52
2023-01-23T05:01:58.511Z,14.40
2023-01-23T05:04:25.381Z,12.93
2023-01-23T05:06:51.981Z,13.27
2023-01-23T05:09:18.808Z,14.85
2023-01-23T05:11:50.736Z,14.13
2023-01-23T05:14:18.265Z,14.02
2023-01-23T05:16:47.146Z,13.52
2023-01-23T05:19:17.168Z,15.30
2023-01-23T05:21:44.355Z,14.90
2023-01-23T05:24:15.696Z,14.40
2023-01-23T05:26:43.295Z,14.95
2023-01-23T05:29:09.805Z,13.38
2023-01-23T05:34:33.519Z,14.75
2023-01-23T05:37:03.100Z,16.20
2023-01-23T05:39:33.209Z,14.68
2023-01-23T05:42:00.484Z,14.55
2023-01-23T05:44:45.300Z,11.68
2023-01-23T05:47:20.692Z,13.98
2023-01-23T05:49:48.555Z,13.25
2023-01-23T05:52:15.283Z,15.57
2023-01-23T05:54:43.172Z,14.13
2023-01-23T05:57:12.185Z,14.55
2023-01-23T06:00:09.696Z,13.30
2023-01-23T06:02:42.502Z,15.90
2023-01-23T06:05:24.181Z,14.00
2023-01-23T06:08:00.277Z,13.80
2023-01-23T06:10:26.818Z,13.77
2023-01-23T06:12:53.311Z,11.65
2023-01-23T06:15:19.901Z,13.18
2023-01-23T06:17:46.902Z,13.55
2023-01-23T06:20:14.373Z,13.70
2023-01-23T06:22:44.048Z,11.70
2023-01-23T06:25:12.618Z,11.65
2023-01-23T06:27:39.415Z,13.35
2023-01-23T06:30:09.034Z,15.30
2023-01-23T06:32:41.243Z,14.38
2023-01-23T06:35:09.379Z,16.38
2023-01-23T06:37:39.489Z,12.95
2023-01-23T06:40:13.005Z,13.80
2023-01-23T06:42:42.282Z,13.10
2023-01-23T06:45:11.439Z,13.73
2023-01-23T06:47:38.269Z,15.02
2023-01-23T06:50:05.347Z,13.80
2023-01-23T06:52:36.824Z,12.68
2023-01-23T06:55:03.850Z,12.70
2023-01-23T06:57:30.410Z,12.95
2023-01-23T06:59:57.386Z,11.57
2023-01-23T07:02:24.338Z,14.15
2023-01-23T07:04:51.705Z,13.40
2023-01-23T07:07:18.943Z,15.82
2023-01-23T07:09:47.918Z,13.85
2023-01-23T07:12:19.859Z,18.13
2023-01-23T07:14:46.715Z,14.60
2023-01-23T07:17:17.705Z,15.35
2023-01-23T07:19:44.477Z,13.63
2023-01-23T07:22:18.629Z,14.02
2023-01-23T07:24:45.169Z,15.32
2023-01-23T07:27:11.655Z,15.18
2023-01-23T07:29:38.156Z,14.55
2023-01-23T07:32:04.939Z,18.35
2023-01-23T07:34:31.493Z,14.88
2023-01-23T07:36:58.074Z,16.10
2023-01-23T07:39:24.924Z,14.88
2023-01-23T07:41:51.460Z,13.63
2023-01-23T07:44:21.262Z,14.02
2023-01-23T07:46:49.198Z,14.95
2023-01-23T07:49:16.083Z,14.63
2023-01-23T07:51:42.516Z,12.63
2023-01-23T07:54:09.076Z,13.30
2023-01-23T07:56:35.590Z,14.07
2023-01-23T07:59:02.094Z,13.95
2023-01-23T08:01:28.634Z,14.80
2023-01-23T08:03:55.248Z,15.10
2023-01-23T08:06:21.835Z,18.48
2023-01-23T08:08:49.291Z,20.92
2023-01-23T08:11:16.232Z,16.02
2023-01-23T08:13:43.029Z,12.65
2023-01-23T08:16:11.954Z,15.07
2023-01-23T08:18:39.856Z,13.40
2023-01-23T08:21:06.371Z,12.80
2023-01-23T08:23:34.538Z,13.52
2023-01-23T08:26:04.193Z,14.50
2023-01-23T08:28:30.807Z,14.65
2023-01-23T08:31:06.996Z,12.95
2023-01-23T08:33:34.927Z,12.68
2023-01-23T08:36:01.799Z,12.30
2023-01-23T08:38:28.444Z,11.55
2023-01-23T08:40:59.788Z,13.52
2023-01-23T08:43:26.697Z,13.35
2023-01-23T08:45:55.090Z,12.50
2023-01-23T08:48:23.397Z,12.90
2023-01-23T08:50:51.569Z,16.27
2023-01-23T08:53:18.085Z,15.48
2023-01-23T08:55:44.654Z,16.40
2023-01-23T08:58:13.758Z,11.88
2023-01-23T09:00:40.826Z,11.32
2023-01-23T09:03:08.938Z,13.00
2023-01-23T09:05:37.060Z,12.30
2023-01-23T09:08:03.709Z,13.93
2023-01-23T09:10:30.214Z,11.77
2023-01-23T09:12:57.211Z,14.80
2023-01-23T09:15:23.775Z,11.23
2023-01-23T09:17:50.412Z,13.90
2023-01-23T09:20:17.143Z,15.48
2023-01-23T09:22:43.695Z,13.68
2023-01-23T09:25:10.638Z,10.57
2023-01-23T09:27:37.120Z,11.93
2023-01-23T09:30:04.674Z,16.20
2023-01-23T09:32:31.155Z,15.45
2023-01-23T09:34:57.638Z,15.57
2023-01-23T09:37:24.128Z,10.43
2023-01-23T09:39:50.670Z,11.88
2023-01-23T09:42:18.380Z,12.48
2023-01-23T09:44:50.501Z,12.45
2023-01-23T09:47:29.962Z,12.32
2023-01-23T09:50:07.828Z,12.07
2023-01-23T09:52:41.465Z,12.30
2023-01-23T09:55:21.739Z,11.18
2023-01-23T09:57:54.735Z,11.50
2023-01-23T10:00:30.740Z,13.07
2023-01-23T10:02:58.074Z,12.70
2023-01-23T10:05:42.636Z,11.95
2023-01-23T10:13:54.495Z,12.93
2023-01-23T10:16:50.741Z,13.45
2023-01-23T10:19:43.182Z,12.23
2023-01-23T10:22:36.024Z,14.38
2023-01-23T10:25:12.335Z,12.48
2023-01-23T10:27:43.132Z,15.25
2023-01-23T10:30:24.370Z,12.50
2023-01-23T10:33:00.762Z,12.63
2023-01-23T10:35:39.689Z,15.32
2023-01-23T10:38:21.307Z,11.55
2023-01-23T10:41:07.446Z,11.93
2023-01-23T10:43:35.571Z,14.15
2023-01-23T10:46:08.572Z,16.55
2023-01-23T10:48:35.325Z,14.10
2023-01-23T10:51:01.884Z,13.88
2023-01-23T10:53:28.456Z,11.95
2023-01-23T10:56:00.239Z,9.55
2023-01-23T10:58:36.632Z,9.68
2023-01-23T11:01:04.278Z,15.68
2023-01-23T11:03:35.802Z,10.75
2023-01-23T11:06:08.030Z,12.30
2023-01-23T11:08:40.368Z,9.95
2023-01-23T11:11:15.992Z,11.63
2023-01-23T11:13:44.579Z,9.18
2023-01-23T11:16:21.013Z,9.80
2023-01-23T11:18:55.153Z,10.15
2023-01-23T11:21:28.618Z,12.68
2023-01-23T11:24:27.833Z,9.90
2023-01-23T11:27:15.005Z,9.30
2023-01-23T11:29:55.791Z,10.48
2023-01-23T11:32:23.893Z,10.98
2023-01-23T11:34:53.731Z,8.30
2023-01-23T11:37:38.875Z,9.15
2023-01-23T11:40:11.066Z,11.20
2023-01-23T11:42:41.378Z,8.80
2023-01-23T11:45:33.416Z,9.95
2023-01-23T11:48:25.551Z,9.93
2023-01-23T11:51:07.613Z,9.20
2023-01-23T11:53:44.444Z,9.18
2023-01-23T11:56:53.129Z,10.63
2023-01-23T11:59:47.618Z,9.93
2023-01-23T12:02:20.021Z,10.55
2023-01-23T12:04:49.516Z,10.35
2023-01-23T12:07:26.273Z,9.75
2023-01-23T12:10:11.007Z,10.27
2023-01-23T12:12:53.936Z,11.73
2023-01-23T12:15:42.836Z,12.82
2023-01-23T12:18:18.179Z,10.60
2023-01-23T12:21:05.644Z,12.48
2023-01-23T12:23:45.313Z,11.98
2023-01-23T12:26:19.582Z,11.15
2023-01-23T12:28:48.967Z,10.88
2023-01-23T12:31:15.577Z,9.30
2023-01-23T12:33:57.343Z,11.40
2023-01-23T12:37:08.629Z,10.68
2023-01-23T12:40:04.944Z,11.53
2023-01-23T12:42:50.593Z,11.77
2023-01-23T12:45:22.463Z,10.63
2023-01-23T12:48:12.680Z,11.27
2023-01-23T12:50:53.579Z,10.50
2023-01-23T12:53:25.128Z,10.85
2023-01-23T12:56:23.272Z,9.15
2023-01-23T12:59:15.780Z,9.32
2023-01-23T13:01:48.231Z,10.02
2023-01-23T13:04:19.944Z,9.63
2023-01-23T13:07:00.341Z,11.80
2023-01-23T13:09:43.603Z,9.93
2023-01-23T13:12:23.181Z,10.20
2023-01-23T13:15:14.702Z,9.57
2023-01-23T13:17:43.786Z,10.98
2023-01-23T13:20:38.296Z,11.23
2023-01-23T13:23:30.000Z,11.43
2023-01-23T13:26:15.431Z,10.32
2023-01-23T13:29:02.391Z,11.73
2023-01-23T13:31:47.553Z,9.73
2023-01-23T13:34:17.536Z,10.15
2023-01-23T13:36:45.811Z,8.80
2023-01-23T13:39:18.222Z,9.07
2023-01-23T13:41:47.009Z,9.90
2023-01-23T13:44:22.979Z,8.88
2023-01-23T14:24:48.864Z,11.32
2023-01-23T14:27:51.355Z,11.82
2023-01-23T14:30:24.645Z,10.60
2023-01-23T14:32:51.232Z,11.25
2023-01-23T14:35:19.719Z,11.88
2023-01-23T14:37:47.013Z,12.32
2023-01-23T14:40:26.755Z,11.05
2023-01-23T14:43:04.986Z,10.40
2023-01-23T14:45:33.733Z,11.50
2023-01-23T14:48:06.457Z,11.82
2023-01-23T14:50:33.601Z,10.00
2023-01-23T14:53:02.997Z,9.88
2023-01-23T14:55:30.649Z,11.93
2023-01-23T14:57:59.943Z,11.68
2023-01-23T15:00:28.388Z,10.82
2023-01-23T15:02:56.210Z,10.18
2023-01-23T15:05:29.273Z,11.65
2023-01-23T15:08:07.214Z,11.95
2023-01-23T15:10:42.854Z,10.35
2023-01-23T15:13:36.425Z,10.23
2023-01-23T15:16:06.476Z,9.38
2023-01-23T15:18:35.626Z,12.23
2023-01-23T15:21:07.980Z,11.38
2023-01-23T15:23:37.282Z,11.70
2023-01-23T15:26:14.366Z,11.60
2023-01-23T15:29:18.109Z,10.23
2023-01-23T15:31:50.132Z,13.02
2023-01-23T15:34:16.769Z,9.70
2023-01-23T15:36:46.068Z,14.43
2023-01-23T15:39:33.854Z,11.68
2023-01-23T15:42:12.442Z,11.75
2023-01-23T15:44:39.579Z,11.45
2023-01-23T15:47:06.400Z,11.20
2023-01-23T15:49:35.296Z,11.27
2023-01-23T15:52:16.136Z,12.35
2023-01-23T15:54:42.789Z,12.48
2023-01-23T15:57:12.720Z,12.63
2023-01-23T15:59:39.585Z,14.32
2023-01-23T16:02:12.893Z,12.05
2023-01-23T16:04:45.691Z,14.02
2023-01-23T16:07:25.536Z,13.00
2023-01-23T16:09:52.727Z,15.88
2023-01-23T16:12:20.680Z,14.30
2023-01-23T16:14:47.977Z,15.02
2023-01-23T16:17:17.016Z,14.73
2023-01-23T16:19:43.935Z,13.90
2023-01-23T16:22:14.759Z,17.50
2023-01-23T16:24:41.788Z,17.58
2023-01-23T16:27:16.948Z,18.10
2023-01-23T16:29:44.657Z,16.13
2023-01-23T16:32:11.439Z,19.65
2023-01-23T16:34:38.395Z,15.68
2023-01-23T16:37:11.381Z,16.70
2023-01-23T16:39:38.337Z,13.45
2023-01-23T16:42:05.054Z,13.63
2023-01-23T16:44:31.675Z,13.00
2023-01-23T16:46:58.327Z,13.07
2023-01-23T16:49:24.826Z,11.68
2023-01-23T16:51:58.155Z,12.13
2023-01-23T16:54:26.059Z,11.63
2023-01-23T16:56:54.256Z,13.18
2023-01-23T16:59:31.468Z,13.40
2023-01-23T17:01:59.692Z,14.52
2023-01-23T17:04:27.275Z,13.57
2023-01-23T17:06:53.815Z,13.48
2023-01-23T17:09:20.289Z,13.52
2023-01-23T17:11:56.972Z,12.93
2023-01-23T17:14:28.717Z,14.30
2023-01-23T17:17:01.415Z,15.23
2023-01-23T17:19:33.888Z,15.18
2023-01-23T17:22:02.482Z,14.93
2023-01-23T17:24:29.090Z,15.38
2023-01-23T17:26:55.919Z,13.90
2023-01-23T17:29:22.985Z,15.95
2023-01-23T17:31:49.651Z,14.77
2023-01-23T17:34:22.866Z,13.73
2023-01-23T17:36:50.586Z,14.98
2023-01-23T17:39:17.108Z,15.07
2023-01-23T17:41:43.821Z,18.48
2023-01-23T17:44:10.384Z,17.35
2023-01-23T17:46:39.301Z,16.10
2023-01-23T17:49:28.016Z,16.55
2023-01-23T17:51:56.457Z,14.35
2023-01-23T17:54:22.937Z,15.50
2023-01-23T17:56:49.596Z,14.80
2023-01-23T17:59:16.165Z,14.95
2023-01-23T18:01:42.965Z,14.65
2023-01-23T18:04:18.306Z,16.45
2023-01-23T18:06:45.692Z,14.98
2023-01-23T18:09:12.831Z,16.02
2023-01-23T18:11:42.541Z,23.52
2023-01-23T18:14:27.437Z,17.17
2023-01-23T18:16:54.581Z,14.35
2023-01-23T18:19:25.835Z,14.05
2023-01-23T18:21:54.957Z,12.93
2023-01-23T18:24:30.367Z,14.02
2023-01-23T18:27:05.513Z,14.73
2023-01-23T18:29:55.449Z,11.80
2023-01-23T18:32:34.330Z,19.40
2023-01-23T18:35:15.790Z,14.15
2023-01-23T18:38:04.106Z,16.55
2023-01-23T18:40:39.070Z,14.18
2023-01-23T18:43:17.238Z,15.93
2023-01-23T18:45:44.187Z,16.55
2023-01-23T18:48:24.647Z,15.80
2023-01-23T18:51:20.836Z,18.88
2023-01-23T18:54:12.856Z,16.73
2023-01-23T18:57:04.345Z,15.10
2023-01-23T18:59:45.523Z,12.70
2023-01-23T19:02:46.824Z,12.88
2023-01-23T19:05:16.622Z,14.60
2023-01-23T19:07:44.967Z,14.60
2023-01-23T19:10:20.398Z,13.88
2023-01-23T19:13:01.918Z,16.20
2023-01-23T19:15:32.900Z,17.60
2023-01-23T19:18:31.529Z,14.23
2023-01-23T19:21:27.317Z,17.40
2023-01-23T19:24:09.900Z,18.10
2023-01-23T19:26:41.979Z,16.33
2023-01-23T19:29:21.102Z,14.93
2023-01-23T19:32:04.106Z,16.48
2023-01-23T19:34:31.955Z,13.77
2023-01-23T19:36:58.556Z,15.95
2023-01-23T19:39:27.309Z,15.93
2023-01-23T19:41:54.297Z,15.50
2023-01-23T19:44:24.001Z,16.55
2023-01-23T19:46:51.740Z,16.42
2023-01-23T19:49:18.465Z,16.40
2023-01-23T19:51:44.988Z,15.65
2023-01-23T19:54:13.280Z,17.00
2023-01-23T19:56:40.084Z,16.05
2023-01-23T19:59:07.170Z,20.00
2023-01-23T20:01:43.219Z,16.70
2023-01-23T20:04:15.907Z,16.45
2023-01-23T20:06:45.153Z,17.90
2023-01-23T20:09:14.569Z,16.17
2023-01-23T20:11:42.355Z,15.85
2023-01-23T20:14:08.819Z,16.73
2023-01-23T20:16:40.040Z,18.00
2023-01-23T20:19:07.276Z,18.48
2023-01-23T20:21:33.898Z,19.33
2023-01-23T20:24:00.529Z,20.83
2023-01-23T20:26:27.175Z,20.27
2023-01-23T20:28:53.712Z,16.55
2023-01-23T20:31:20.842Z,19.25
2023-01-23T20:33:47.873Z,19.20
2023-01-23T20:36:15.935Z,17.42
2023-01-23T20:38:42.975Z,19.58
2023-01-23T20:41:21.274Z,18.40
2023-01-23T20:43:48.141Z,18.48
2023-01-23T20:46:19.377Z,17.90
2023-01-23T20:48:46.603Z,16.17
2023-01-23T20:51:15.391Z,16.33
2023-01-23T20:53:42.687Z,14.93
2023-01-23T20:56:14.863Z,14.82
2023-01-23T20:59:04.584Z,16.15
2023-01-23T21:01:54.795Z,18.10
2023-01-23T21:04:23.650Z,16.27
2023-01-23T21:06:50.301Z,14.95
2023-01-23T21:09:16.966Z,16.42
2023-01-23T21:11:43.872Z,17.38
2023-01-23T21:14:10.341Z,20.08
2023-01-23T21:16:37.040Z,16.50
2023-01-23T21:19:04.068Z,15.55
2023-01-23T21:21:30.792Z,17.05
2023-01-23T21:23:57.338Z,32.20
2023-01-23T21:26:28.800Z,17.58
2023-01-23T21:28:57.361Z,18.48
2023-01-23T21:31:27.416Z,17.23
2023-01-23T21:33:54.223Z,17.95
2023-01-23T21:36:23.313Z,16.75
2023-01-23T21:38:51.459Z,18.85
2023-01-23T21:41:18.708Z,16.67
2023-01-23T21:43:45.255Z,17.75
2023-01-23T21:46:12.109Z,19.98
2023-01-23T21:48:38.724Z,17.52
2023-01-23T21:51:13.960Z,17.00
2023-01-23T21:53:43.295Z,17.25
2023-01-23T21:56:10.640Z,18.42
2023-01-23T21:58:37.187Z,16.92
2023-01-23T22:01:30.532Z,18.50
2023-01-23T22:03:57.657Z,17.23
2023-01-23T22:06:24.220Z,18.75
2023-01-23T22:08:50.749Z,16.75
2023-01-23T22:11:17.245Z,19.83
2023-01-23T22:13:43.784Z,18.75
2023-01-23T22:16:11.843Z,16.52
2023-01-23T22:18:38.551Z,19.02
2023-01-23T22:21:06.780Z,17.08
2023-01-23T22:23:33.477Z,18.35
2023-01-23T22:26:02.913Z,19.17
2023-01-23T22:28:29.751Z,16.65
2023-01-23T22:30:56.856Z,18.45
2023-01-23T22:33:24.033Z,17.23
2023-01-23T22:35:52.204Z,18.13
2023-01-23T22:38:18.836Z,17.02
2023-01-23T22:40:45.335Z,17.10
2023-01-23T22:43:11.940Z,18.45
2023-01-23T22:45:38.499Z,15.30
2023-01-23T22:48:05.391Z,18.52
2023-01-23T22:50:31.864Z,18.13
2023-01-23T22:52:58.340Z,17.58
2023-01-23T22:55:24.842Z,19.35
2023-01-23T22:57:53.140Z,18.23
2023-01-23T23:00:20.256Z,16.85
2023-01-23T23:02:46.940Z,18.80
2023-01-23T23:05:13.473Z,19.02
2023-01-23T23:07:40.506Z,19.00
2023-01-23T23:10:09.509Z,21.00
2023-01-23T23:12:36.106Z,18.15
2023-01-23T23:15:03.185Z,18.83
2023-01-23T23:17:30.059Z,18.48
2023-01-23T23:19:56.709Z,18.95
2023-01-23T23:22:23.415Z,18.63
2023-01-23T23:24:49.986Z,19.85
2023-01-23T23:27:16.471Z,18.75
2023-01-23T23:29:42.987Z,17.88
2023-01-23T23:32:09.647Z,17.58
2023-01-23T23:34:37.270Z,15.57
2023-01-23T23:37:03.905Z,18.73
2023-01-23T23:39:30.500Z,17.48
2023-01-23T23:41:57.092Z,18.00
2023-01-23T23:44:23.747Z,17.42
2023-01-23T23:46:50.243Z,17.05
2023-01-23T23:49:16.763Z,20.00
2023-01-23T23:51:43.263Z,17.83
2023-01-23T23:54:09.772Z,19.38
2023-01-23T23:56:36.325Z,18.80
2023-01-23T23:59:02.858Z,17.48
